createdAt,value
2017-10-20T00:00:43.438Z,79.15
2017-10-20T00:01:53.525Z,78.77
2017-10-20T00:03:03.943Z,78.2
2017-10-20T00:04:14.023Z,79.06
2017-10-20T00:05:23.766Z,78.67
2017-10-20T00:06:33.837Z,79.15
2017-10-20T00:07:44.281Z,78.77
2017-10-20T00:08:54.352Z,78.86
2017-10-20T00:10:04.425Z,78.77
2017-10-20T00:11:14.844Z,78.2
2017-10-20T00:12:25.276Z,78.96
2017-10-20T00:13:35.349Z,78.2
2017-10-20T00:14:45.757Z,79.3
2017-10-20T00:15:56.174Z,78.64
2017-10-20T00:17:06.575Z,78.64
2017-10-20T00:18:16.972Z,78.64
2017-10-20T00:19:27.396Z,78.06
2017-10-20T00:20:37.459Z,78.16
2017-10-20T00:21:47.857Z,78.73
2017-10-20T00:22:58.273Z,78.73
2017-10-20T00:24:08.703Z,78.83
2017-10-20T00:25:18.798Z,78.35
2017-10-20T00:26:28.597Z,78.64
2017-10-20T00:27:38.682Z,78.83
2017-10-20T00:28:49.075Z,78.54
2017-10-20T00:29:59.482Z,78.35
2017-10-20T00:31:09.886Z,78.92
2017-10-20T00:32:20.341Z,79.21
2017-10-20T00:33:30.738Z,79.02
2017-10-20T00:34:41.157Z,78.92
2017-10-20T00:35:51.567Z,79.21
2017-10-20T00:37:01.629Z,78.06
2017-10-20T00:38:11.697Z,78.64
2017-10-20T00:39:22.124Z,78.44
2017-10-20T00:40:32.530Z,78.54
2017-10-20T00:41:42.960Z,78.16
2017-10-20T00:42:53.041Z,78.64
2017-10-20T00:44:03.495Z,78.64
2017-10-20T00:45:13.560Z,78.25
2017-10-20T00:46:23.625Z,78.06
2017-10-20T00:47:34.040Z,78.16
2017-10-20T00:48:44.436Z,78.83
2017-10-20T00:49:54.905Z,78.06
2017-10-20T00:51:05.311Z,78.35
2017-10-20T00:52:15.728Z,78.54
2017-10-20T00:53:26.128Z,78.83
2017-10-20T00:54:36.197Z,78.83
2017-10-20T00:55:46.662Z,79.11
2017-10-20T00:56:57.056Z,78.64
2017-10-20T00:58:07.137Z,78.92
2017-10-20T00:59:17.230Z,78.92
2017-10-20T01:00:26.993Z,78.44
2017-10-20T01:01:37.416Z,78.73
2017-10-20T01:02:47.820Z,78.16
2017-10-20T01:03:58.253Z,78.83
2017-10-20T01:05:08.666Z,78.44
2017-10-20T01:06:19.048Z,78.64
2017-10-20T01:07:29.204Z,78.88
2017-10-20T01:08:39.599Z,78.73
2017-10-20T01:09:49.659Z,78.73
2017-10-20T01:10:59.741Z,78.44
2017-10-20T01:12:10.144Z,78.25
2017-10-20T01:13:20.259Z,78.64
2017-10-20T01:14:30.670Z,78.64
2017-10-20T01:15:41.075Z,78.54
2017-10-20T01:16:51.153Z,78.64
2017-10-20T01:18:01.235Z,78.92
2017-10-20T01:19:12.283Z,78.73
2017-10-20T01:20:22.695Z,78.54
2017-10-20T01:21:32.775Z,78.59
2017-10-20T01:22:42.862Z,78.64
2017-10-20T01:23:53.270Z,78.44
2017-10-20T01:25:03.673Z,78.64
2017-10-20T01:26:14.083Z,78.44
2017-10-20T01:27:24.489Z,78.41
2017-10-20T01:28:34.904Z,78.59
2017-10-20T01:29:45.332Z,78.44
2017-10-20T01:30:55.416Z,78.41
2017-10-20T01:32:05.829Z,78.31
2017-10-20T01:33:15.929Z,78.59
2017-10-20T01:34:26.333Z,78.59
2017-10-20T01:35:36.747Z,78.73
2017-10-20T01:36:46.821Z,78.59
2017-10-20T01:37:57.227Z,78.5
2017-10-20T01:39:07.309Z,78.41
2017-10-20T01:40:17.729Z,78.98
2017-10-20T01:41:27.817Z,78.59
2017-10-20T01:42:37.567Z,78.78
2017-10-20T01:43:47.970Z,78.78
2017-10-20T01:44:58.037Z,78.59
2017-10-20T01:46:08.454Z,78.59
2017-10-20T01:47:18.520Z,78.59
2017-10-20T01:48:28.663Z,78.59
2017-10-20T01:49:39.069Z,78.41
2017-10-20T01:50:49.151Z,78.59
2017-10-20T01:51:59.539Z,78.59
2017-10-20T01:53:09.614Z,78.59
2017-10-20T01:54:20.085Z,78.88
2017-10-20T01:55:30.534Z,78.88
2017-10-20T01:56:40.931Z,78.41
2017-10-20T01:57:50.987Z,78.78
2017-10-20T01:59:01.387Z,78.59
2017-10-20T02:00:11.799Z,78.59
2017-10-20T02:01:21.883Z,78.88
2017-10-20T02:02:31.935Z,78.78
2017-10-20T02:03:42.335Z,78.41
2017-10-20T02:04:52.747Z,78.69
2017-10-20T02:06:03.150Z,78.41
2017-10-20T02:07:13.554Z,78.35
2017-10-20T02:08:23.623Z,78.83
2017-10-20T02:09:34.044Z,78.54
2017-10-20T02:10:44.121Z,78.25
2017-10-20T02:11:54.614Z,78.64
2017-10-20T02:13:05.021Z,78.16
2017-10-20T02:14:15.422Z,78.25
2017-10-20T02:15:25.837Z,78.54
2017-10-20T02:16:36.246Z,78.64
2017-10-20T02:17:46.055Z,78.64
2017-10-20T02:18:56.455Z,78.64
2017-10-20T02:20:06.859Z,78.54
2017-10-20T02:21:16.931Z,78.59
2017-10-20T02:22:27.587Z,78.22
2017-10-20T02:23:38.045Z,78.59
2017-10-20T02:24:48.125Z,78.54
2017-10-20T02:25:58.529Z,78.5
2017-10-20T02:27:08.940Z,78.59
2017-10-20T02:28:19.342Z,78.59
2017-10-20T02:29:29.745Z,78.59
2017-10-20T02:30:40.174Z,78.41
2017-10-20T02:31:50.584Z,78.59
2017-10-20T02:33:00.347Z,78.73
2017-10-20T02:34:10.421Z,78.92
2017-10-20T02:35:20.832Z,78.54
2017-10-20T02:36:31.232Z,78.5
2017-10-20T02:37:41.306Z,78.64
2017-10-20T02:38:51.718Z,78.69
2017-10-20T02:40:02.131Z,78.92
2017-10-20T02:41:12.562Z,78.54
2017-10-20T02:42:22.965Z,78.59
2017-10-20T02:43:33.366Z,78.73
2017-10-20T02:44:43.446Z,78.59
2017-10-20T02:45:53.526Z,78.59
2017-10-20T02:47:03.939Z,78.64
2017-10-20T02:48:14.343Z,78.64
2017-10-20T02:49:24.743Z,78.83
2017-10-20T02:50:35.148Z,78.44
2017-10-20T02:51:45.232Z,78.64
2017-10-20T02:52:55.632Z,78.54
2017-10-20T02:54:06.041Z,78.35
2017-10-20T02:55:16.128Z,78.35
2017-10-20T02:56:26.527Z,78.16
2017-10-20T02:57:36.291Z,78.73
2017-10-20T02:58:46.753Z,78.64
2017-10-20T02:59:56.829Z,78.06
2017-10-20T03:01:07.241Z,78.44
2017-10-20T03:02:17.657Z,78.44
2017-10-20T03:33:57.540Z,74.48
2017-10-20T03:35:07.937Z,75.62
2017-10-20T03:36:18.324Z,76.39
2017-10-20T03:37:28.720Z,77.49
2017-10-20T03:38:38.791Z,78.29
2017-10-20T03:39:49.210Z,78.77
2017-10-20T03:40:59.282Z,78.67
2017-10-20T03:42:09.683Z,79.14
2017-10-20T03:43:20.074Z,79.05
2017-10-20T03:44:30.146Z,78.9
2017-10-20T03:45:40.589Z,78.9
2017-10-20T03:46:50.660Z,78.8
2017-10-20T03:48:00.731Z,79.19
2017-10-20T03:49:10.815Z,78.75
2017-10-20T03:50:21.232Z,79.03
2017-10-20T03:51:31.700Z,79.03
2017-10-20T03:52:42.113Z,79.13
2017-10-20T03:53:52.190Z,78.85
2017-10-20T03:55:02.267Z,79.07
2017-10-20T03:56:12.661Z,79.27
2017-10-20T03:57:23.057Z,79.27
2017-10-20T03:58:32.819Z,79.07
2017-10-20T03:59:42.894Z,79.02
2017-10-20T04:00:53.286Z,78.73
2017-10-20T04:02:03.379Z,78.73
2017-10-20T04:03:13.821Z,78.92
2017-10-20T04:04:24.228Z,78.83
2017-10-20T04:05:34.638Z,78.64
2017-10-20T04:06:45.032Z,78.25
2017-10-20T04:07:55.448Z,78.83
2017-10-20T04:09:05.905Z,78.64
2017-10-20T04:10:16.309Z,78.67
2017-10-20T04:11:26.699Z,78.49
2017-10-20T04:12:37.099Z,78.67
2017-10-20T04:13:47.499Z,78.58
2017-10-20T04:14:57.570Z,78.67
2017-10-20T04:16:07.971Z,78.67
2017-10-20T04:17:18.382Z,78.58
2017-10-20T04:18:28.783Z,78.67
2017-10-20T04:19:39.191Z,78.67
2017-10-20T04:20:49.645Z,78.49
2017-10-20T04:22:00.081Z,78.67
2017-10-20T04:23:10.496Z,78.77
2017-10-20T04:24:20.566Z,78.67
2017-10-20T04:25:30.640Z,78.58
2017-10-20T04:26:40.064Z,78.67
2017-10-20T04:27:50.497Z,78.58
2017-10-20T04:29:00.903Z,78.67
2017-10-20T04:30:10.660Z,78.67
2017-10-20T04:31:20.417Z,78.77
2017-10-20T04:32:30.819Z,78.67
2017-10-20T04:33:41.217Z,78.2
2017-10-20T04:34:51.315Z,78.77
2017-10-20T04:36:01.725Z,78.67
2017-10-20T04:37:12.136Z,79.25
2017-10-20T04:38:22.529Z,78.77
2017-10-20T04:39:32.929Z,78.1
2017-10-20T04:40:43.003Z,78.77
2017-10-20T04:41:53.407Z,78.77
2017-10-20T04:43:03.825Z,78.86
2017-10-20T04:44:13.898Z,78.77
2017-10-20T04:45:23.969Z,79.06
2017-10-20T04:46:34.377Z,78.86
2017-10-20T04:47:44.786Z,78.96
2017-10-20T04:48:55.177Z,78.77
2017-10-20T04:50:05.605Z,78.77
2017-10-20T04:51:16.011Z,78.77
2017-10-20T04:52:26.414Z,78.86
2017-10-20T04:53:36.813Z,78.86
2017-10-20T04:54:46.880Z,78.86
2017-10-20T04:55:57.353Z,78.67
2017-10-20T04:57:07.760Z,78.86
2017-10-20T04:58:18.165Z,78.86
2017-10-20T04:59:28.574Z,78.58
2017-10-20T05:00:38.992Z,78.86
2017-10-20T05:01:49.449Z,78.67
2017-10-20T05:02:59.843Z,78.67
2017-10-20T05:04:09.572Z,79.35
2017-10-20T05:05:19.992Z,78.86
2017-10-20T05:06:30.069Z,78.86
2017-10-20T05:07:40.538Z,78.86
2017-10-20T05:08:51.749Z,78.96
2017-10-20T05:10:02.161Z,78.86
2017-10-20T05:11:12.254Z,78.67
2017-10-20T05:12:22.335Z,78.58
2017-10-20T05:13:32.761Z,78.86
2017-10-20T05:14:43.179Z,78.77
2017-10-20T05:15:53.589Z,79.15
2017-10-20T05:17:04.016Z,79.06
2017-10-20T05:18:14.425Z,78.96
2017-10-20T05:19:24.492Z,78.96
2017-10-20T05:20:34.945Z,79.15
2017-10-20T05:21:45.354Z,78.96
2017-10-20T05:22:55.764Z,79.06
2017-10-20T05:24:05.517Z,78.86
2017-10-20T05:25:15.935Z,78.77
2017-10-20T05:26:26.340Z,78.67
2017-10-20T05:27:36.756Z,78.49
2017-10-20T05:28:46.827Z,78.58
2017-10-20T05:29:57.225Z,78.67
2017-10-20T05:31:07.628Z,78.49
2017-10-20T05:32:17.769Z,78.58
2017-10-20T05:33:28.189Z,78.67
2017-10-20T05:34:38.294Z,78.67
2017-10-20T05:35:48.711Z,78.58
2017-10-20T05:36:59.121Z,78.58
2017-10-20T05:38:09.237Z,78.49
2017-10-20T05:39:19.635Z,78.77
2017-10-20T05:40:30.039Z,78.49
2017-10-20T05:41:40.116Z,78.58
2017-10-20T05:42:50.514Z,78.58
2017-10-20T05:44:00.961Z,78.49
2017-10-20T05:45:10.722Z,78.49
2017-10-20T05:46:20.800Z,78.77
2017-10-20T05:47:31.202Z,78.77
2017-10-20T05:48:41.604Z,78.67
2017-10-20T05:49:52.006Z,78.43
2017-10-20T05:51:02.067Z,79
2017-10-20T05:52:12.148Z,78.72
2017-10-20T05:53:22.560Z,78.62
2017-10-20T05:54:32.962Z,78.33
2017-10-20T05:55:43.408Z,78.72
2017-10-20T05:56:53.835Z,78.62
2017-10-20T05:58:03.898Z,78.33
2017-10-20T05:59:14.293Z,78.52
2017-10-20T06:00:24.720Z,78.62
2017-10-20T06:01:35.170Z,78.43
2017-10-20T06:02:45.594Z,78.47
2017-10-20T06:03:56.010Z,78.33
2017-10-20T06:05:05.772Z,78.66
2017-10-20T06:06:16.170Z,78.28
2017-10-20T06:07:26.237Z,78.47
2017-10-20T06:08:36.632Z,78.56
2017-10-20T06:09:47.026Z,78.56
2017-10-20T06:10:57.416Z,78.56
2017-10-20T06:12:07.821Z,78.56
2017-10-20T06:13:18.271Z,78.28
2017-10-20T06:14:28.669Z,78.75
2017-10-20T06:15:39.074Z,78.37
2017-10-20T06:16:49.141Z,78.47
2017-10-20T06:17:59.544Z,78.66
2017-10-20T06:19:09.953Z,78.37
2017-10-20T06:20:20.356Z,78.85
2017-10-20T06:21:30.446Z,78.75
2017-10-20T06:22:40.849Z,78.75
2017-10-20T06:23:50.932Z,78.85
2017-10-20T06:25:01.332Z,78.66
2017-10-20T06:26:11.731Z,78.85
2017-10-20T06:27:22.131Z,78.47
2017-10-20T06:28:32.531Z,78.31
2017-10-20T06:29:42.927Z,78.6
2017-10-20T06:30:53.007Z,78.79
2017-10-20T06:32:03.416Z,78.31
2017-10-20T06:33:13.146Z,78.41
2017-10-20T06:34:23.550Z,78.22
2017-10-20T06:35:33.954Z,78.22
2017-10-20T06:36:43.747Z,78.41
2017-10-20T06:37:54.153Z,78.31
2017-10-20T06:39:04.564Z,78.31
2017-10-20T06:40:14.961Z,78.6
2017-10-20T06:41:25.060Z,78.51
2017-10-20T06:42:35.435Z,78.6
2017-10-20T06:43:45.852Z,78.41
2017-10-20T06:44:56.258Z,78.7
2017-10-20T06:46:06.670Z,78.79
2017-10-20T06:47:16.748Z,78.22
2017-10-20T06:48:27.159Z,78.51
2017-10-20T06:49:37.241Z,78.22
2017-10-20T06:50:47.326Z,78.22
2017-10-20T06:51:57.079Z,78.51
2017-10-20T06:53:07.506Z,78.31
2017-10-20T06:54:17.929Z,78.64
2017-10-20T06:55:28.324Z,78.74
2017-10-20T06:56:38.719Z,78.93
2017-10-20T06:57:49.113Z,77.87
2017-10-20T06:58:59.519Z,77.97
2017-10-20T07:00:09.973Z,77.97
2017-10-20T07:01:20.373Z,78.07
2017-10-20T07:02:30.439Z,78.07
2017-10-20T07:03:40.847Z,78.2
2017-10-20T07:04:51.260Z,78.49
2017-10-20T07:06:01.675Z,78.01
2017-10-20T07:07:11.757Z,78.3
2017-10-20T07:08:22.159Z,78.49
2017-10-20T07:09:32.547Z,78.11
2017-10-20T07:10:42.946Z,78.01
2017-10-20T07:11:53.394Z,77.82
2017-10-20T07:13:03.794Z,78.11
2017-10-20T07:14:14.203Z,78.97
2017-10-20T07:15:24.616Z,78.78
2017-10-20T07:16:35.010Z,77.82
2017-10-20T07:17:45.415Z,78.97
2017-10-20T07:18:55.829Z,78.78
2017-10-20T07:20:05.898Z,78.58
2017-10-20T07:21:15.646Z,78.49
2017-10-20T07:22:26.060Z,78.49
2017-10-20T07:23:36.470Z,78.3
2017-10-20T07:24:46.208Z,78.11
2017-10-20T07:25:56.602Z,78.39
2017-10-20T07:27:06.988Z,78.49
2017-10-20T07:28:17.378Z,78.49
2017-10-20T07:29:28.886Z,78.49
2017-10-20T07:30:39.306Z,78.3
2017-10-20T07:31:49.730Z,78.39
2017-10-20T07:33:00.142Z,78.49
2017-10-20T07:34:10.535Z,78.39
2017-10-20T07:35:20.941Z,78.58
2017-10-20T07:36:31.361Z,78.49
2017-10-20T07:37:41.437Z,78.58
2017-10-20T07:38:51.841Z,78.58
2017-10-20T07:40:02.231Z,78.68
2017-10-20T07:41:12.297Z,78.58
2017-10-20T07:42:22.720Z,78.78
2017-10-20T07:43:32.787Z,78.78
2017-10-20T07:44:43.206Z,77.82
2017-10-20T07:45:53.265Z,77.92
2017-10-20T07:47:03.391Z,78.01
2017-10-20T07:48:13.458Z,78.01
2017-10-20T07:49:23.890Z,78.11
2017-10-20T07:50:34.297Z,78.3
2017-10-20T07:51:44.040Z,78.11
2017-10-20T07:52:54.530Z,78.3
2017-10-20T07:54:04.932Z,78.3
2017-10-20T07:55:15.344Z,78.01
2017-10-20T07:56:25.425Z,78.2
2017-10-20T07:57:35.842Z,78.3
2017-10-20T07:58:46.253Z,78.39
2017-10-20T07:59:56.006Z,78.01
2017-10-20T08:01:06.421Z,78.3
2017-10-20T08:02:16.832Z,78.39
2017-10-20T08:03:27.234Z,78.3
2017-10-20T08:04:37.032Z,78.11
2017-10-20T08:05:47.454Z,78.05
2017-10-20T08:06:57.538Z,78.05
2017-10-20T08:08:07.943Z,77.95
2017-10-20T08:09:18.350Z,77.95
2017-10-20T08:10:28.751Z,77.95
2017-10-20T08:11:38.831Z,78.2
2017-10-20T08:12:48.893Z,77.95
2017-10-20T08:13:59.308Z,77.76
2017-10-20T08:15:09.705Z,77.76
2017-10-20T08:16:20.110Z,78.14
2017-10-20T08:17:30.184Z,78.05
2017-10-20T08:18:40.585Z,77.95
2017-10-20T08:19:50.998Z,78.11
2017-10-20T08:21:01.404Z,77.95
2017-10-20T08:22:11.842Z,77.76
2017-10-20T08:23:21.920Z,77.95
2017-10-20T08:24:32.315Z,77.95
2017-10-20T08:25:42.739Z,77.95
2017-10-20T08:26:52.821Z,77.95
2017-10-20T08:28:02.930Z,78.14
2017-10-20T08:29:13.031Z,77.95
2017-10-20T08:30:23.429Z,77.95
2017-10-20T08:31:33.504Z,77.95
2017-10-20T08:32:43.585Z,77.76
2017-10-20T08:33:53.988Z,77.76
2017-10-20T08:35:04.394Z,77.86
2017-10-20T08:36:14.170Z,77.95
2017-10-20T08:37:24.571Z,77.86
2017-10-20T08:38:34.978Z,77.38
2017-10-20T08:39:45.049Z,77.86
2017-10-20T08:40:55.121Z,78.05
2017-10-20T08:42:05.609Z,77.57
2017-10-20T08:43:16.013Z,77.19
2017-10-20T08:44:26.428Z,77.28
2017-10-20T08:45:36.831Z,77.19
2017-10-20T08:46:47.236Z,77.28
2017-10-20T08:47:57.645Z,77.28
2017-10-20T08:49:08.049Z,77.23
2017-10-20T08:50:18.447Z,77.23
2017-10-20T08:51:28.859Z,77.42
2017-10-20T08:52:39.257Z,77.51
2017-10-20T08:53:49.328Z,77.23
2017-10-20T08:54:59.391Z,77.23
2017-10-20T08:56:09.794Z,77.51
2017-10-20T08:57:20.197Z,77.42
2017-10-20T08:58:30.269Z,77.51
2017-10-20T08:59:40.351Z,77.8
2017-10-20T09:00:50.759Z,77.51
2017-10-20T09:02:01.169Z,77.33
2017-10-20T09:03:11.248Z,77.42
2017-10-20T09:04:21.748Z,77.33
2017-10-20T09:05:32.239Z,77.8
2017-10-20T09:06:41.683Z,77.33
2017-10-20T09:07:52.137Z,77.33
2017-10-20T09:09:02.570Z,77.33
2017-10-20T09:10:13.098Z,77.13
2017-10-20T09:11:23.586Z,77.51
2017-10-20T09:12:33.455Z,77.46
2017-10-20T09:13:43.917Z,77.46
2017-10-20T09:14:54.334Z,77.46
2017-10-20T09:16:04.417Z,77.46
2017-10-20T09:17:14.829Z,77.26
2017-10-20T09:18:25.270Z,77.46
2017-10-20T09:19:35.016Z,77.46
2017-10-20T09:20:45.427Z,77.55
2017-10-20T09:21:55.830Z,77.36
2017-10-20T09:23:06.228Z,77.26
2017-10-20T09:24:16.628Z,77.46
2017-10-20T09:25:26.706Z,77.65
2017-10-20T09:26:37.083Z,77.55
2017-10-20T09:27:47.163Z,77.69
2017-10-20T09:28:57.621Z,77.69
2017-10-20T09:30:07.697Z,77.5
2017-10-20T09:31:17.770Z,77.36
2017-10-20T09:32:27.826Z,77.36
2017-10-20T09:33:37.923Z,77.84
2017-10-20T09:34:48.005Z,77.69
2017-10-20T09:35:58.240Z,77.4
2017-10-20T09:37:08.668Z,77.31
2017-10-20T09:38:18.755Z,77.4
2017-10-20T09:39:28.828Z,77.59
2017-10-20T09:40:39.273Z,77.78
2017-10-20T09:41:49.672Z,77.78
2017-10-20T09:43:00.105Z,77.59
2017-10-20T09:44:10.168Z,77.59
2017-10-20T09:45:20.571Z,77.59
2017-10-20T09:46:30.987Z,77.78
2017-10-20T09:47:41.388Z,77.4
2017-10-20T09:48:51.653Z,77.69
2017-10-20T09:50:02.082Z,77.69
2017-10-20T09:51:11.846Z,77.59
2017-10-20T09:52:22.309Z,77.5
2017-10-20T09:53:32.712Z,77.59
2017-10-20T09:54:43.113Z,77.5
2017-10-20T09:55:53.517Z,77.73
2017-10-20T09:57:03.951Z,77.82
2017-10-20T09:58:14.395Z,77.92
2017-10-20T09:59:24.813Z,77.73
2017-10-20T10:00:35.220Z,77.44
2017-10-20T10:01:45.634Z,77.73
2017-10-20T10:02:55.385Z,77.53
2017-10-20T10:04:05.470Z,77.44
2017-10-20T10:05:15.889Z,77.53
2017-10-20T10:06:26.332Z,77.44
2017-10-20T10:07:37.316Z,77.53
2017-10-20T10:08:47.736Z,77.44
2017-10-20T10:09:57.884Z,77.44
2017-10-20T10:11:08.321Z,77.44
2017-10-20T10:12:18.737Z,77.63
2017-10-20T10:13:29.164Z,77.82
2017-10-20T10:14:40.008Z,77.63
2017-10-20T10:15:50.585Z,77.67
2017-10-20T10:17:01.089Z,77.63
2017-10-20T10:18:11.573Z,77.48
2017-10-20T10:19:21.982Z,77.29
2017-10-20T10:20:32.400Z,77.38
2017-10-20T10:21:42.822Z,77.29
2017-10-20T10:22:53.239Z,77.38
2017-10-20T10:24:03.005Z,77
2017-10-20T10:25:13.423Z,76.62
2017-10-20T10:26:23.862Z,76.65
2017-10-20T10:27:34.326Z,76.07
2017-10-20T10:28:44.740Z,76.5
2017-10-20T10:29:55.154Z,76.5
2017-10-20T10:31:05.571Z,76.4
2017-10-20T10:32:16.001Z,76.31
2017-10-20T10:33:26.504Z,76.4
2017-10-20T10:34:36.933Z,76.69
2017-10-20T10:35:48.377Z,77.08
2017-10-20T10:36:58.785Z,77.36
2017-10-20T10:38:09.217Z,77.46
2017-10-20T10:39:19.350Z,77.46
2017-10-20T10:40:29.768Z,77.65
2017-10-20T10:41:40.192Z,77.65
2017-10-20T10:42:50.272Z,77.56
2017-10-20T10:44:00.376Z,78
2017-10-20T10:45:10.844Z,77.8
2017-10-20T10:46:20.941Z,78.03
2017-10-20T10:47:30.715Z,78.09
2017-10-20T10:48:41.121Z,78.23
2017-10-20T10:49:51.216Z,78
2017-10-20T10:51:01.321Z,77.46
2017-10-20T10:52:11.755Z,77.51
2017-10-20T10:53:22.178Z,77.51
2017-10-20T10:54:32.612Z,77.71
2017-10-20T10:55:43.060Z,77.56
2017-10-20T10:56:53.475Z,77.33
2017-10-20T10:58:04.253Z,77.8
2017-10-20T10:59:14.003Z,78.03
2017-10-20T11:00:24.423Z,77.9
2017-10-20T11:01:34.858Z,77.9
2017-10-20T11:02:45.263Z,78.03
2017-10-20T11:03:55.349Z,78.19
2017-10-20T11:05:05.769Z,78.13
2017-10-20T11:06:15.521Z,78.19
2017-10-20T11:07:25.937Z,77.94
2017-10-20T11:08:36.343Z,77.56
2017-10-20T11:09:46.780Z,77.56
2017-10-20T11:10:56.860Z,77.75
2017-10-20T11:12:06.943Z,77.75
2017-10-20T11:13:17.033Z,77.56
2017-10-20T11:14:27.182Z,77.36
2017-10-20T11:15:37.617Z,77.75
2017-10-20T11:16:48.005Z,77.56
2017-10-20T11:17:58.424Z,77.56
2017-10-20T11:19:08.505Z,77.4
2017-10-20T11:20:18.643Z,77.5
2017-10-20T11:21:28.714Z,77.5
2017-10-20T11:22:38.798Z,77.5
2017-10-20T11:23:49.220Z,77.69
2017-10-20T11:24:59.631Z,77.69
2017-10-20T11:26:10.055Z,77.69
2017-10-20T11:27:20.496Z,77.92
2017-10-20T11:28:30.916Z,77.78
2017-10-20T11:29:41.367Z,77.53
2017-10-20T11:30:51.444Z,77.53
2017-10-20T11:32:01.858Z,77.44
2017-10-20T11:33:12.284Z,77.63
2017-10-20T11:34:22.713Z,77.44
2017-10-20T11:35:33.150Z,77.78
2017-10-20T11:36:43.570Z,77.59
2017-10-20T11:37:54.033Z,77.59
2017-10-20T11:39:04.465Z,78.17
2017-10-20T11:40:14.551Z,78.17
2017-10-20T11:41:24.967Z,78.36
2017-10-20T11:42:35.067Z,78.52
2017-10-20T11:43:45.470Z,78.32
2017-10-20T11:44:55.896Z,79.19
2017-10-20T11:46:06.368Z,79.09
2017-10-20T11:47:16.813Z,78.99
2017-10-20T11:48:27.232Z,78.7
2017-10-20T11:49:37.651Z,78.77
2017-10-20T11:50:48.133Z,79.05
2017-10-20T11:51:58.568Z,78.77
2017-10-20T11:53:09.009Z,79.09
2017-10-20T11:54:19.442Z,78.23
2017-10-20T11:55:29.851Z,78.23
2017-10-20T11:56:39.649Z,78.61
2017-10-20T11:57:49.753Z,78.7
2017-10-20T11:58:59.824Z,78.65
2017-10-20T12:00:10.275Z,78.03
2017-10-20T12:01:20.690Z,78.36
2017-10-20T12:02:31.085Z,78.08
2017-10-20T12:03:41.542Z,78.17
2017-10-20T12:04:51.992Z,78.27
2017-10-20T12:06:02.398Z,78.17
2017-10-20T12:07:12.834Z,77.88
2017-10-20T12:08:23.245Z,78.75
2017-10-20T12:09:33.339Z,78.65
2017-10-20T12:10:43.780Z,78.36
2017-10-20T12:11:53.879Z,78.36
2017-10-20T12:13:04.281Z,78.55
2017-10-20T12:14:14.702Z,79.22
2017-10-20T12:15:24.793Z,78.27
2017-10-20T12:16:35.210Z,78.27
2017-10-20T12:17:45.624Z,78.45
2017-10-20T12:18:56.981Z,78.45
2017-10-20T12:20:07.431Z,78.65
2017-10-20T12:21:17.845Z,78.27
2017-10-20T12:22:28.260Z,78.36
2017-10-20T12:23:38.671Z,78.27
2017-10-20T12:24:49.116Z,78.5
2017-10-20T12:25:59.217Z,78.3
2017-10-20T12:27:09.654Z,78.4
2017-10-20T12:28:20.076Z,78.3
2017-10-20T12:29:30.144Z,78.3
2017-10-20T12:30:40.274Z,78.3
2017-10-20T12:31:50.711Z,78.11
2017-10-20T12:33:01.150Z,78.25
2017-10-20T12:34:11.542Z,78.34
2017-10-20T12:35:21.639Z,78.25
2017-10-20T12:36:32.126Z,78.44
2017-10-20T12:37:42.556Z,78.73
2017-10-20T12:38:52.998Z,78.5
2017-10-20T12:40:03.422Z,78.21
2017-10-20T12:41:13.841Z,79.17
2017-10-20T12:42:24.271Z,79.46
2017-10-20T12:43:34.695Z,79.17
2017-10-20T12:44:44.791Z,78.88
2017-10-20T12:45:54.877Z,78.98
2017-10-20T12:47:05.286Z,78.98
2017-10-20T12:48:15.719Z,78.3
2017-10-20T12:49:26.114Z,78.5
2017-10-20T12:50:36.572Z,78.5
2017-10-20T12:51:46.975Z,78.59
2017-10-20T12:52:57.074Z,78.59
2017-10-20T12:54:07.562Z,78.3
2017-10-20T12:55:17.977Z,78.15
2017-10-20T12:56:28.393Z,78.34
2017-10-20T12:57:38.797Z,78.25
2017-10-20T12:58:49.220Z,78.34
2017-10-20T12:59:59.627Z,78.34
2017-10-20T13:01:10.047Z,77.76
2017-10-20T13:02:20.475Z,77.76
2017-10-20T13:03:30.895Z,77.86
2017-10-20T13:04:40.973Z,77.81
2017-10-20T13:05:50.731Z,77.81
2017-10-20T13:07:00.482Z,77.71
2017-10-20T13:08:10.942Z,77.51
2017-10-20T13:09:21.396Z,77.56
2017-10-20T13:10:31.843Z,78.13
2017-10-20T13:11:42.269Z,77.9
2017-10-20T13:12:52.750Z,78
2017-10-20T13:14:03.157Z,78.28
2017-10-20T13:15:13.572Z,78.48
2017-10-20T13:16:24.025Z,78.77
2017-10-20T13:17:34.445Z,78.48
2017-10-20T13:18:44.622Z,78.96
2017-10-20T13:19:55.070Z,78.86
2017-10-20T13:21:05.182Z,78.77
2017-10-20T13:22:15.616Z,78.86
2017-10-20T13:23:26.080Z,78.58
2017-10-20T13:24:36.549Z,78.77
2017-10-20T13:25:46.991Z,79.35
2017-10-20T13:26:57.420Z,78.73
2017-10-20T13:28:07.848Z,79.11
2017-10-20T13:29:18.264Z,78.83
2017-10-20T13:30:28.740Z,79.3
2017-10-20T13:31:38.829Z,78.34
2017-10-20T13:32:48.943Z,78.77
2017-10-20T13:33:59.369Z,78.58
2017-10-20T13:35:09.460Z,78.96
2017-10-20T13:36:19.950Z,78.28
2017-10-20T13:37:30.365Z,78.28
2017-10-20T13:38:40.441Z,78.09
2017-10-20T13:39:50.852Z,78.28
2017-10-20T13:41:01.298Z,78.09
2017-10-20T13:42:11.052Z,77.81
2017-10-20T13:43:21.516Z,77.71
2017-10-20T13:44:31.596Z,78.28
2017-10-20T13:45:41.365Z,77.81
2017-10-20T13:46:51.445Z,77.71
2017-10-20T13:48:01.918Z,78
2017-10-20T13:49:12.015Z,78.28
2017-10-20T13:50:22.450Z,78.48
2017-10-20T13:51:32.548Z,78.48
2017-10-20T13:52:42.628Z,78.86
2017-10-20T13:53:53.074Z,78.58
2017-10-20T13:55:03.152Z,78.67
2017-10-20T13:56:13.244Z,78.58
2017-10-20T13:57:23.005Z,79.11
2017-10-20T13:58:33.464Z,78.92
2017-10-20T13:59:43.896Z,78.77
2017-10-20T14:00:54.328Z,78.86
2017-10-20T14:02:04.761Z,78.73
2017-10-20T14:03:14.841Z,79.11
2017-10-20T14:04:24.586Z,79.21
2017-10-20T14:05:34.747Z,78.92
2017-10-20T14:06:45.170Z,78.73
2017-10-20T14:07:55.619Z,79.11
2017-10-20T14:09:05.724Z,79.02
2017-10-20T14:10:15.837Z,79.11
2017-10-20T14:11:26.279Z,79.21
2017-10-20T14:12:36.684Z,78.92
2017-10-20T14:13:47.111Z,79.11
2017-10-20T14:14:57.552Z,79.02
2017-10-20T14:16:07.980Z,79.11
2017-10-20T14:17:18.476Z,79.02
2017-10-20T14:18:28.587Z,78.92
2017-10-20T14:19:38.994Z,79.21
2017-10-20T14:20:49.420Z,79.4
2017-10-20T14:21:59.836Z,79.5
2017-10-20T14:23:10.329Z,79.21
2017-10-20T14:24:20.766Z,79.11
2017-10-20T14:25:31.187Z,79.21
2017-10-20T14:26:41.626Z,79.5
2017-10-20T14:27:52.076Z,79.36
2017-10-20T14:29:02.214Z,79.55
2017-10-20T14:30:12.640Z,79.46
2017-10-20T14:31:23.080Z,80.13
2017-10-20T14:32:33.506Z,79.55
2017-10-20T14:33:43.596Z,79.94
2017-10-20T14:34:54.038Z,79.8
2017-10-20T14:36:04.165Z,79.9
2017-10-20T14:37:14.687Z,80.09
2017-10-20T14:38:25.108Z,79.71
2017-10-20T14:39:35.195Z,79.57
2017-10-20T14:40:45.336Z,79.86
2017-10-20T14:41:55.737Z,79.86
2017-10-20T14:43:06.170Z,79.47
2017-10-20T14:44:16.668Z,79.47
2017-10-20T14:45:27.078Z,79.91
2017-10-20T14:46:37.163Z,79.96
2017-10-20T14:47:47.577Z,80.05
2017-10-20T14:48:58.019Z,80.01
2017-10-20T14:50:08.444Z,79.53
2017-10-20T14:51:18.890Z,79.82
2017-10-20T14:52:28.981Z,79.53
2017-10-20T14:53:39.414Z,79.63
2017-10-20T14:54:49.516Z,79.63
2017-10-20T14:55:59.935Z,79.63
2017-10-20T14:57:10.342Z,79.34
2017-10-20T14:58:20.869Z,79.44
2017-10-20T14:59:31.269Z,79.44
2017-10-20T15:00:41.031Z,79.82
2017-10-20T15:01:51.125Z,79.63
2017-10-20T15:03:00.913Z,79.82
2017-10-20T15:04:11.057Z,79.82
2017-10-20T15:05:21.150Z,79.63
2017-10-20T15:06:31.238Z,79.63
2017-10-20T15:07:41.651Z,79.63
2017-10-20T15:08:52.047Z,79.63
2017-10-20T15:10:02.462Z,79.63
2017-10-20T15:11:12.890Z,79.63
2017-10-20T15:12:23.315Z,79.63
2017-10-20T15:13:33.776Z,79.82
2017-10-20T15:14:44.189Z,79.82
2017-10-20T15:15:54.309Z,79.24
2017-10-20T15:17:04.387Z,79.24
2017-10-20T15:18:14.818Z,79.34
2017-10-20T15:19:24.891Z,79.82
2017-10-20T15:20:35.299Z,79.63
2017-10-20T15:21:45.779Z,79.63
2017-10-20T15:22:56.196Z,79.63
2017-10-20T15:24:06.634Z,79.82
2017-10-20T15:25:17.072Z,79.44
2017-10-20T15:26:27.505Z,79.82
2017-10-20T15:27:37.607Z,80.01
2017-10-20T15:28:48.037Z,79.72
2017-10-20T15:29:58.126Z,79.72
2017-10-20T15:31:08.227Z,79.39
2017-10-20T15:32:18.640Z,79.59
2017-10-20T15:33:29.089Z,79.49
2017-10-20T15:34:39.175Z,79.78
2017-10-20T15:35:49.636Z,79.59
2017-10-20T15:37:00.072Z,79.59
2017-10-20T15:38:10.725Z,79.49
2017-10-20T15:39:21.146Z,80.07